sensor_id;sensor_type;location;lat;lon;timestamp;temperature;humidity
24260;DHT22;12384;48.112;18.418;2022-12-07T00:01:38;4.70;99.90
24260;DHT22;12384;48.112;18.418;2022-12-07T00:04:10;4.70;99.90
24260;DHT22;12384;48.112;18.418;2022-12-07T00:06:42;4.70;99.90
24260;DHT22;12384;48.112;18.418;2022-12-07T00:09:12;4.70;99.90
24260;DHT22;12384;48.112;18.418;2022-12-07T00:11:41;4.70;99.90
24260;DHT22;12384;48.112;18.418;2022-12-07T00:14:12;4.70;99.90
24260;DHT22;12384;48.112;18.418;2022-12-07T00:16:41;4.70;99.90
24260;DHT22;12384;48.112;18.418;2022-12-07T00:19:10;4.70;99.90
24260;DHT22;12384;48.112;18.418;2022-12-07T00:21:41;4.70;99.90
24260;DHT22;12384;48.112;18.418;2022-12-07T00:24:11;4.70;99.90
24260;DHT22;12384;48.112;18.418;2022-12-07T00:26:41;4.70;99.90
24260;DHT22;12384;48.112;18.418;2022-12-07T00:29:15;4.70;99.90
24260;DHT22;12384;48.112;18.418;2022-12-07T00:31:44;4.70;99.90
24260;DHT22;12384;48.112;18.418;2022-12-07T00:34:14;4.60;99.90
24260;DHT22;12384;48.112;18.418;2022-12-07T00:36:44;4.60;99.90
24260;DHT22;12384;48.112;18.418;2022-12-07T00:39:13;4.60;99.90
24260;DHT22;12384;48.112;18.418;2022-12-07T00:41:41;4.60;99.90
24260;DHT22;12384;48.112;18.418;2022-12-07T00:44:10;4.60;99.90
24260;DHT22;12384;48.112;18.418;2022-12-07T00:46:38;4.60;99.90
24260;DHT22;12384;48.112;18.418;2022-12-07T00:49:07;4.60;99.90
24260;DHT22;12384;48.112;18.418;2022-12-07T00:51:35;4.60;99.90
24260;DHT22;12384;48.112;18.418;2022-12-07T00:54:05;4.50;99.90
24260;DHT22;12384;48.112;18.418;2022-12-07T00:56:34;4.50;99.90
24260;DHT22;12384;48.112;18.418;2022-12-07T00:59:03;4.50;99.90
24260;DHT22;12384;48.112;18.418;2022-12-07T01:01:35;4.50;99.90
24260;DHT22;12384;48.112;18.418;2022-12-07T01:04:05;4.50;99.90
24260;DHT22;12384;48.112;18.418;2022-12-07T01:06:34;4.50;99.90
24260;DHT22;12384;48.112;18.418;2022-12-07T01:09:04;4.50;99.90
24260;DHT22;12384;48.112;18.418;2022-12-07T01:11:33;4.50;99.90
24260;DHT22;12384;48.112;18.418;2022-12-07T01:14:01;4.50;99.90
24260;DHT22;12384;48.112;18.418;2022-12-07T01:16:31;4.50;99.90
24260;DHT22;12384;48.112;18.418;2022-12-07T01:19:01;4.50;99.90
24260;DHT22;12384;48.112;18.418;2022-12-07T01:21:33;4.50;99.90
24260;DHT22;12384;48.112;18.418;2022-12-07T01:24:09;4.50;99.90
24260;DHT22;12384;48.112;18.418;2022-12-07T01:26:39;4.50;99.90
24260;DHT22;12384;48.112;18.418;2022-12-07T01:29:08;4.50;99.90
24260;DHT22;12384;48.112;18.418;2022-12-07T01:31:36;4.50;99.90
24260;DHT22;12384;48.112;18.418;2022-12-07T01:34:04;4.50;99.90
24260;DHT22;12384;48.112;18.418;2022-12-07T01:36:35;4.50;99.90
24260;DHT22;12384;48.112;18.418;2022-12-07T01:39:07;4.50;99.90
24260;DHT22;12384;48.112;18.418;2022-12-07T01:41:37;4.50;99.90
24260;DHT22;12384;48.112;18.418;2022-12-07T01:44:20;4.50;99.90
24260;DHT22;12384;48.112;18.418;2022-12-07T01:46:50;4.50;99.90
24260;DHT22;12384;48.112;18.418;2022-12-07T01:49:25;4.50;99.90
24260;DHT22;12384;48.112;18.418;2022-12-07T01:52:00;4.50;99.90
24260;DHT22;12384;48.112;18.418;2022-12-07T01:54:31;4.50;99.90
24260;DHT22;12384;48.112;18.418;2022-12-07T01:57:01;4.50;99.90
24260;DHT22;12384;48.112;18.418;2022-12-07T01:59:30;4.50;99.90
24260;DHT22;12384;48.112;18.418;2022-12-07T02:01:59;4.50;99.90
24260;DHT22;12384;48.112;18.418;2022-12-07T02:04:30;4.50;99.90
24260;DHT22;12384;48.112;18.418;2022-12-07T02:06:59;4.50;99.90
24260;DHT22;12384;48.112;18.418;2022-12-07T02:09:28;4.50;99.90
24260;DHT22;12384;48.112;18.418;2022-12-07T02:11:57;4.50;99.90
24260;DHT22;12384;48.112;18.418;2022-12-07T02:14:26;4.50;99.90
24260;DHT22;12384;48.112;18.418;2022-12-07T02:17:05;4.50;99.90
24260;DHT22;12384;48.112;18.418;2022-12-07T02:20:10;4.60;99.90
24260;DHT22;12384;48.112;18.418;2022-12-07T02:23:23;4.60;99.90
24260;DHT22;12384;48.112;18.418;2022-12-07T02:29:16;4.60;99.90
24260;DHT22;12384;48.112;18.418;2022-12-07T02:31:51;4.60;99.90
24260;DHT22;12384;48.112;18.418;2022-12-07T02:34:31;4.60;99.90
24260;DHT22;12384;48.112;18.418;2022-12-07T02:37:08;4.60;99.90
24260;DHT22;12384;48.112;18.418;2022-12-07T02:39:42;4.60;99.90
24260;DHT22;12384;48.112;18.418;2022-12-07T02:42:15;4.60;99.90
24260;DHT22;12384;48.112;18.418;2022-12-07T02:44:46;4.60;99.90
24260;DHT22;12384;48.112;18.418;2022-12-07T02:47:17;4.60;99.90
24260;DHT22;12384;48.112;18.418;2022-12-07T02:49:47;4.60;99.90
24260;DHT22;12384;48.112;18.418;2022-12-07T02:52:17;4.60;99.90
24260;DHT22;12384;48.112;18.418;2022-12-07T02:54:46;4.60;99.90
24260;DHT22;12384;48.112;18.418;2022-12-07T02:57:28;4.60;99.90
24260;DHT22;12384;48.112;18.418;2022-12-07T03:00:05;4.60;99.90
24260;DHT22;12384;48.112;18.418;2022-12-07T03:02:43;4.60;99.90
24260;DHT22;12384;48.112;18.418;2022-12-07T03:05:29;4.60;99.90
24260;DHT22;12384;48.112;18.418;2022-12-07T03:08:02;4.60;99.90
24260;DHT22;12384;48.112;18.418;2022-12-07T03:10:41;4.60;99.90
24260;DHT22;12384;48.112;18.418;2022-12-07T03:13:17;4.60;99.90
24260;DHT22;12384;48.112;18.418;2022-12-07T03:15:53;4.60;99.90
24260;DHT22;12384;48.112;18.418;2022-12-07T03:18:25;4.60;99.90
24260;DHT22;12384;48.112;18.418;2022-12-07T03:20:58;4.50;99.90
24260;DHT22;12384;48.112;18.418;2022-12-07T03:23:31;4.50;99.90
24260;DHT22;12384;48.112;18.418;2022-12-07T03:26:03;4.50;99.90
24260;DHT22;12384;48.112;18.418;2022-12-07T03:28:36;4.50;99.90
24260;DHT22;12384;48.112;18.418;2022-12-07T03:31:11;4.50;99.90
24260;DHT22;12384;48.112;18.418;2022-12-07T03:33:47;4.40;99.90
24260;DHT22;12384;48.112;18.418;2022-12-07T03:36:23;4.40;99.90
24260;DHT22;12384;48.112;18.418;2022-12-07T03:39:00;4.40;99.90
24260;DHT22;12384;48.112;18.418;2022-12-07T03:41:32;4.40;99.90
24260;DHT22;12384;48.112;18.418;2022-12-07T03:44:11;4.40;99.90
24260;DHT22;12384;48.112;18.418;2022-12-07T03:46:44;4.40;99.90
24260;DHT22;12384;48.112;18.418;2022-12-07T03:49:23;4.40;99.90
24260;DHT22;12384;48.112;18.418;2022-12-07T03:51:55;4.30;99.90
24260;DHT22;12384;48.112;18.418;2022-12-07T03:54:28;4.30;99.90
24260;DHT22;12384;48.112;18.418;2022-12-07T03:56:58;4.30;99.90
24260;DHT22;12384;48.112;18.418;2022-12-07T03:59:28;4.30;99.90
24260;DHT22;12384;48.112;18.418;2022-12-07T04:02:07;4.30;99.90
24260;DHT22;12384;48.112;18.418;2022-12-07T04:04:36;4.30;99.90
24260;DHT22;12384;48.112;18.418;2022-12-07T04:07:04;4.30;99.90
24260;DHT22;12384;48.112;18.418;2022-12-07T04:09:33;4.30;99.90
24260;DHT22;12384;48.112;18.418;2022-12-07T04:12:01;4.30;99.90
24260;DHT22;12384;48.112;18.418;2022-12-07T04:14:30;4.30;99.90
24260;DHT22;12384;48.112;18.418;2022-12-07T04:17:00;4.30;99.90
24260;DHT22;12384;48.112;18.418;2022-12-07T04:19:30;4.30;99.90
24260;DHT22;12384;48.112;18.418;2022-12-07T04:22:00;4.30;99.90
24260;DHT22;12384;48.112;18.418;2022-12-07T04:24:29;4.30;99.90
24260;DHT22;12384;48.112;18.418;2022-12-07T04:26:57;4.30;99.90
24260;DHT22;12384;48.112;18.418;2022-12-07T04:29:26;4.30;99.90
24260;DHT22;12384;48.112;18.418;2022-12-07T04:31:55;4.40;99.90
24260;DHT22;12384;48.112;18.418;2022-12-07T04:34:25;4.40;99.90
24260;DHT22;12384;48.112;18.418;2022-12-07T04:36:53;4.40;99.90
24260;DHT22;12384;48.112;18.418;2022-12-07T04:39:24;4.40;99.90
24260;DHT22;12384;48.112;18.418;2022-12-07T04:41:53;4.40;99.90
24260;DHT22;12384;48.112;18.418;2022-12-07T04:44:22;4.40;99.90
24260;DHT22;12384;48.112;18.418;2022-12-07T04:46:51;4.40;99.90
24260;DHT22;12384;48.112;18.418;2022-12-07T04:49:20;4.40;99.90
24260;DHT22;12384;48.112;18.418;2022-12-07T04:51:51;4.40;99.90
24260;DHT22;12384;48.112;18.418;2022-12-07T04:54:20;4.40;99.90
24260;DHT22;12384;48.112;18.418;2022-12-07T04:56:48;4.40;99.90
24260;DHT22;12384;48.112;18.418;2022-12-07T04:59:17;4.40;99.90
24260;DHT22;12384;48.112;18.418;2022-12-07T05:01:45;4.40;99.90
24260;DHT22;12384;48.112;18.418;2022-12-07T05:04:14;4.40;99.90
24260;DHT22;12384;48.112;18.418;2022-12-07T05:06:45;4.40;99.90
24260;DHT22;12384;48.112;18.418;2022-12-07T05:09:14;4.40;99.90
24260;DHT22;12384;48.112;18.418;2022-12-07T05:11:43;4.40;99.90
24260;DHT22;12384;48.112;18.418;2022-12-07T05:14:14;4.40;99.90
24260;DHT22;12384;48.112;18.418;2022-12-07T05:16:44;4.40;99.90
24260;DHT22;12384;48.112;18.418;2022-12-07T05:19:13;4.40;99.90
24260;DHT22;12384;48.112;18.418;2022-12-07T05:21:42;4.40;99.90
24260;DHT22;12384;48.112;18.418;2022-12-07T05:24:12;4.40;99.90
24260;DHT22;12384;48.112;18.418;2022-12-07T05:26:42;4.40;99.90
24260;DHT22;12384;48.112;18.418;2022-12-07T05:29:12;4.40;99.90
24260;DHT22;12384;48.112;18.418;2022-12-07T05:31:41;4.30;99.90
24260;DHT22;12384;48.112;18.418;2022-12-07T05:34:10;4.30;99.90
24260;DHT22;12384;48.112;18.418;2022-12-07T05:36:38;4.30;99.90
24260;DHT22;12384;48.112;18.418;2022-12-07T05:39:07;4.30;99.90
24260;DHT22;12384;48.112;18.418;2022-12-07T05:41:36;4.30;99.90
24260;DHT22;12384;48.112;18.418;2022-12-07T05:44:23;4.30;99.90
24260;DHT22;12384;48.112;18.418;2022-12-07T05:46:52;4.30;99.90
24260;DHT22;12384;48.112;18.418;2022-12-07T05:49:20;4.30;99.90
24260;DHT22;12384;48.112;18.418;2022-12-07T05:51:49;4.20;99.90
24260;DHT22;12384;48.112;18.418;2022-12-07T05:54:17;4.20;99.90
24260;DHT22;12384;48.112;18.418;2022-12-07T05:56:46;4.20;99.90
24260;DHT22;12384;48.112;18.418;2022-12-07T05:59:14;4.20;99.90
24260;DHT22;12384;48.112;18.418;2022-12-07T06:02:08;4.20;99.90
24260;DHT22;12384;48.112;18.418;2022-12-07T06:04:40;4.10;99.90
24260;DHT22;12384;48.112;18.418;2022-12-07T06:07:11;4.10;99.90
24260;DHT22;12384;48.112;18.418;2022-12-07T06:09:40;4.10;99.90
24260;DHT22;12384;48.112;18.418;2022-12-07T06:12:10;4.10;99.90
24260;DHT22;12384;48.112;18.418;2022-12-07T06:14:56;4.10;99.90
24260;DHT22;12384;48.112;18.418;2022-12-07T06:17:26;4.10;99.90
24260;DHT22;12384;48.112;18.418;2022-12-07T06:19:55;4.10;99.90
24260;DHT22;12384;48.112;18.418;2022-12-07T06:22:23;4.10;99.90
24260;DHT22;12384;48.112;18.418;2022-12-07T06:24:52;4.10;99.90
24260;DHT22;12384;48.112;18.418;2022-12-07T06:27:20;4.00;99.90
24260;DHT22;12384;48.112;18.418;2022-12-07T06:29:48;4.00;99.90
24260;DHT22;12384;48.112;18.418;2022-12-07T06:32:17;4.00;99.90
24260;DHT22;12384;48.112;18.418;2022-12-07T06:34:47;4.00;99.90
24260;DHT22;12384;48.112;18.418;2022-12-07T06:37:15;4.00;99.90
24260;DHT22;12384;48.112;18.418;2022-12-07T06:39:44;4.00;99.90
24260;DHT22;12384;48.112;18.418;2022-12-07T06:42:13;4.00;99.90
24260;DHT22;12384;48.112;18.418;2022-12-07T06:44:41;4.00;99.90
24260;DHT22;12384;48.112;18.418;2022-12-07T06:47:09;4.00;99.90
24260;DHT22;12384;48.112;18.418;2022-12-07T06:49:59;4.00;99.90
24260;DHT22;12384;48.112;18.418;2022-12-07T06:52:29;4.10;99.90
24260;DHT22;12384;48.112;18.418;2022-12-07T06:54:58;4.10;99.90
24260;DHT22;12384;48.112;18.418;2022-12-07T06:57:27;4.00;99.90
24260;DHT22;12384;48.112;18.418;2022-12-07T06:59:55;4.00;99.90
24260;DHT22;12384;48.112;18.418;2022-12-07T07:02:23;4.10;99.90
24260;DHT22;12384;48.112;18.418;2022-12-07T07:04:52;4.10;99.90
24260;DHT22;12384;48.112;18.418;2022-12-07T07:07:22;4.10;99.90
24260;DHT22;12384;48.112;18.418;2022-12-07T07:09:50;4.10;99.90
24260;DHT22;12384;48.112;18.418;2022-12-07T07:12:19;4.10;99.90
24260;DHT22;12384;48.112;18.418;2022-12-07T07:14:47;4.10;99.90
24260;DHT22;12384;48.112;18.418;2022-12-07T07:17:16;4.10;99.90
24260;DHT22;12384;48.112;18.418;2022-12-07T07:19:44;4.10;99.90
24260;DHT22;12384;48.112;18.418;2022-12-07T07:22:13;4.20;99.90
24260;DHT22;12384;48.112;18.418;2022-12-07T07:24:43;4.20;99.90
24260;DHT22;12384;48.112;18.418;2022-12-07T07:27:11;4.20;99.90
24260;DHT22;12384;48.112;18.418;2022-12-07T07:29:40;4.20;99.90
24260;DHT22;12384;48.112;18.418;2022-12-07T07:32:08;4.30;99.90
24260;DHT22;12384;48.112;18.418;2022-12-07T07:34:37;4.30;99.90
24260;DHT22;12384;48.112;18.418;2022-12-07T07:37:05;4.30;99.90
24260;DHT22;12384;48.112;18.418;2022-12-07T07:39:34;4.30;99.90
24260;DHT22;12384;48.112;18.418;2022-12-07T07:42:04;4.40;99.90
24260;DHT22;12384;48.112;18.418;2022-12-07T07:44:32;4.40;99.90
24260;DHT22;12384;48.112;18.418;2022-12-07T07:47:02;4.40;99.90
24260;DHT22;12384;48.112;18.418;2022-12-07T07:49:30;4.40;99.90
24260;DHT22;12384;48.112;18.418;2022-12-07T07:51:59;4.50;99.90
24260;DHT22;12384;48.112;18.418;2022-12-07T07:54:28;4.50;99.90
24260;DHT22;12384;48.112;18.418;2022-12-07T07:56:56;4.50;99.90
24260;DHT22;12384;48.112;18.418;2022-12-07T07:59:26;4.60;99.90
24260;DHT22;12384;48.112;18.418;2022-12-07T08:01:54;4.60;99.90
24260;DHT22;12384;48.112;18.418;2022-12-07T08:04:23;4.60;99.90
24260;DHT22;12384;48.112;18.418;2022-12-07T08:06:52;4.70;99.90
24260;DHT22;12384;48.112;18.418;2022-12-07T08:09:20;4.70;99.90
24260;DHT22;12384;48.112;18.418;2022-12-07T08:11:49;4.70;99.90
24260;DHT22;12384;48.112;18.418;2022-12-07T08:14:17;4.70;99.90
24260;DHT22;12384;48.112;18.418;2022-12-07T08:16:47;4.70;99.90
24260;DHT22;12384;48.112;18.418;2022-12-07T08:19:16;4.80;99.90
24260;DHT22;12384;48.112;18.418;2022-12-07T08:21:44;4.80;99.90
24260;DHT22;12384;48.112;18.418;2022-12-07T08:24:13;4.90;99.90
24260;DHT22;12384;48.112;18.418;2022-12-07T08:26:42;4.90;99.90
24260;DHT22;12384;48.112;18.418;2022-12-07T08:29:10;5.00;99.90
24260;DHT22;12384;48.112;18.418;2022-12-07T08:31:39;5.00;99.90
24260;DHT22;12384;48.112;18.418;2022-12-07T08:34:10;5.00;99.90
24260;DHT22;12384;48.112;18.418;2022-12-07T08:36:39;5.10;99.90
24260;DHT22;12384;48.112;18.418;2022-12-07T08:39:07;5.10;99.90
24260;DHT22;12384;48.112;18.418;2022-12-07T08:41:55;5.10;99.90
24260;DHT22;12384;48.112;18.418;2022-12-07T08:44:24;5.10;99.90
24260;DHT22;12384;48.112;18.418;2022-12-07T08:46:57;5.20;99.90
24260;DHT22;12384;48.112;18.418;2022-12-07T08:49:31;5.20;99.90
24260;DHT22;12384;48.112;18.418;2022-12-07T08:52:01;5.20;99.90
24260;DHT22;12384;48.112;18.418;2022-12-07T08:54:34;5.20;99.90
24260;DHT22;12384;48.112;18.418;2022-12-07T08:57:04;5.30;99.90
24260;DHT22;12384;48.112;18.418;2022-12-07T08:59:35;5.30;99.90
24260;DHT22;12384;48.112;18.418;2022-12-07T09:02:04;5.30;99.90
24260;DHT22;12384;48.112;18.418;2022-12-07T09:04:34;5.30;99.90
24260;DHT22;12384;48.112;18.418;2022-12-07T09:07:03;5.30;99.90
24260;DHT22;12384;48.112;18.418;2022-12-07T09:09:32;5.30;99.90
24260;DHT22;12384;48.112;18.418;2022-12-07T09:12:01;5.40;99.90
24260;DHT22;12384;48.112;18.418;2022-12-07T09:14:29;5.40;99.90
24260;DHT22;12384;48.112;18.418;2022-12-07T09:17:08;5.40;99.90
24260;DHT22;12384;48.112;18.418;2022-12-07T09:19:39;5.50;99.90
24260;DHT22;12384;48.112;18.418;2022-12-07T09:22:09;5.50;99.90
24260;DHT22;12384;48.112;18.418;2022-12-07T09:24:38;5.50;99.90
24260;DHT22;12384;48.112;18.418;2022-12-07T09:27:06;5.60;99.90
24260;DHT22;12384;48.112;18.418;2022-12-07T09:29:35;5.60;99.90
24260;DHT22;12384;48.112;18.418;2022-12-07T09:32:04;5.70;99.90
24260;DHT22;12384;48.112;18.418;2022-12-07T09:34:39;5.70;99.90
24260;DHT22;12384;48.112;18.418;2022-12-07T09:37:08;5.70;99.90
24260;DHT22;12384;48.112;18.418;2022-12-07T09:39:39;5.70;99.90
24260;DHT22;12384;48.112;18.418;2022-12-07T09:42:27;5.70;99.90
24260;DHT22;12384;48.112;18.418;2022-12-07T09:44:58;5.70;99.90
24260;DHT22;12384;48.112;18.418;2022-12-07T09:47:28;5.70;99.90
24260;DHT22;12384;48.112;18.418;2022-12-07T09:50:04;5.70;99.90
24260;DHT22;12384;48.112;18.418;2022-12-07T09:52:33;5.70;99.90
24260;DHT22;12384;48.112;18.418;2022-12-07T09:55:11;5.70;99.90
24260;DHT22;12384;48.112;18.418;2022-12-07T09:57:41;5.70;99.90
24260;DHT22;12384;48.112;18.418;2022-12-07T10:00:14;5.70;99.90
24260;DHT22;12384;48.112;18.418;2022-12-07T10:02:44;5.70;99.90
24260;DHT22;12384;48.112;18.418;2022-12-07T10:05:19;5.70;99.90
24260;DHT22;12384;48.112;18.418;2022-12-07T10:07:51;5.70;99.90
24260;DHT22;12384;48.112;18.418;2022-12-07T10:10:25;5.60;99.90
24260;DHT22;12384;48.112;18.418;2022-12-07T10:12:59;5.70;99.90
24260;DHT22;12384;48.112;18.418;2022-12-07T10:15:56;5.70;99.90
24260;DHT22;12384;48.112;18.418;2022-12-07T10:18:34;5.70;99.90
24260;DHT22;12384;48.112;18.418;2022-12-07T10:21:12;5.70;99.90
24260;DHT22;12384;48.112;18.418;2022-12-07T10:23:42;5.70;99.90
24260;DHT22;12384;48.112;18.418;2022-12-07T10:26:28;5.80;99.90
24260;DHT22;12384;48.112;18.418;2022-12-07T10:29:00;5.80;99.90
24260;DHT22;12384;48.112;18.418;2022-12-07T10:31:34;5.90;99.90
24260;DHT22;12384;48.112;18.418;2022-12-07T10:34:20;6.00;99.90
24260;DHT22;12384;48.112;18.418;2022-12-07T10:36:52;6.00;99.90
24260;DHT22;12384;48.112;18.418;2022-12-07T10:39:22;6.10;99.90
24260;DHT22;12384;48.112;18.418;2022-12-07T10:41:54;6.20;99.90
24260;DHT22;12384;48.112;18.418;2022-12-07T10:44:26;6.30;99.90
24260;DHT22;12384;48.112;18.418;2022-12-07T10:47:18;6.30;99.90
24260;DHT22;12384;48.112;18.418;2022-12-07T10:50:22;6.50;99.90
24260;DHT22;12384;48.112;18.418;2022-12-07T10:59:35;6.80;99.90
24260;DHT22;12384;48.112;18.418;2022-12-07T11:05:28;7.10;99.90
24260;DHT22;12384;48.112;18.418;2022-12-07T11:08:09;7.20;99.90
24260;DHT22;12384;48.112;18.418;2022-12-07T11:10:47;7.40;99.90
24260;DHT22;12384;48.112;18.418;2022-12-07T11:13:27;7.50;99.90
24260;DHT22;12384;48.112;18.418;2022-12-07T11:16:31;7.70;99.90
24260;DHT22;12384;48.112;18.418;2022-12-07T11:22:14;8.10;99.90
24260;DHT22;12384;48.112;18.418;2022-12-07T11:25:13;8.30;99.90
24260;DHT22;12384;48.112;18.418;2022-12-07T11:27:46;8.50;99.90
24260;DHT22;12384;48.112;18.418;2022-12-07T11:30:24;8.80;99.90
24260;DHT22;12384;48.112;18.418;2022-12-07T11:33:10;9.10;99.90
24260;DHT22;12384;48.112;18.418;2022-12-07T11:36:02;9.30;99.90
24260;DHT22;12384;48.112;18.418;2022-12-07T11:38:41;9.70;99.90
24260;DHT22;12384;48.112;18.418;2022-12-07T11:41:17;10.20;99.90
24260;DHT22;12384;48.112;18.418;2022-12-07T11:43:59;10.60;99.90
24260;DHT22;12384;48.112;18.418;2022-12-07T11:46:41;11.00;99.90
24260;DHT22;12384;48.112;18.418;2022-12-07T11:49:17;11.10;99.90
24260;DHT22;12384;48.112;18.418;2022-12-07T11:51:54;11.10;97.60
24260;DHT22;12384;48.112;18.418;2022-12-07T11:54:34;11.00;93.40
24260;DHT22;12384;48.112;18.418;2022-12-07T11:57:11;10.80;90.00
24260;DHT22;12384;48.112;18.418;2022-12-07T11:59:50;10.60;84.60
24260;DHT22;12384;48.112;18.418;2022-12-07T12:02:41;10.30;80.90
24260;DHT22;12384;48.112;18.418;2022-12-07T12:05:15;10.00;78.70
24260;DHT22;12384;48.112;18.418;2022-12-07T12:08:20;9.70;78.60
24260;DHT22;12384;48.112;18.418;2022-12-07T12:11:44;9.40;77.80
24260;DHT22;12384;48.112;18.418;2022-12-07T12:14:26;9.00;77.00
24260;DHT22;12384;48.112;18.418;2022-12-07T12:17:35;8.70;76.90
24260;DHT22;12384;48.112;18.418;2022-12-07T12:20:21;8.40;77.20
24260;DHT22;12384;48.112;18.418;2022-12-07T12:22:55;8.20;77.40
24260;DHT22;12384;48.112;18.418;2022-12-07T12:25:29;8.00;77.60
24260;DHT22;12384;48.112;18.418;2022-12-07T12:27:59;7.80;77.70
24260;DHT22;12384;48.112;18.418;2022-12-07T12:30:37;7.60;78.10
24260;DHT22;12384;48.112;18.418;2022-12-07T12:33:19;7.40;78.80
24260;DHT22;12384;48.112;18.418;2022-12-07T12:36:18;7.30;79.90
24260;DHT22;12384;48.112;18.418;2022-12-07T12:41:55;7.00;83.70
24260;DHT22;12384;48.112;18.418;2022-12-07T12:45:20;7.00;86.90
24260;DHT22;12384;48.112;18.418;2022-12-07T12:47:58;7.00;90.30
24260;DHT22;12384;48.112;18.418;2022-12-07T12:50:42;7.10;92.00
24260;DHT22;12384;48.112;18.418;2022-12-07T12:53:33;7.10;93.20
24260;DHT22;12384;48.112;18.418;2022-12-07T12:56:27;7.20;93.90
24260;DHT22;12384;48.112;18.418;2022-12-07T12:59:32;7.20;94.20
24260;DHT22;12384;48.112;18.418;2022-12-07T13:02:30;7.20;94.40
24260;DHT22;12384;48.112;18.418;2022-12-07T13:05:20;7.30;94.90
24260;DHT22;12384;48.112;18.418;2022-12-07T13:07:59;7.30;95.80
24260;DHT22;12384;48.112;18.418;2022-12-07T13:10:40;7.50;98.80
24260;DHT22;12384;48.112;18.418;2022-12-07T13:13:32;7.70;99.90
24260;DHT22;12384;48.112;18.418;2022-12-07T13:16:48;7.90;99.90
24260;DHT22;12384;48.112;18.418;2022-12-07T13:23:12;8.20;94.50
24260;DHT22;12384;48.112;18.418;2022-12-07T13:26:15;8.10;92.10
24260;DHT22;12384;48.112;18.418;2022-12-07T13:31:42;7.80;89.80
24260;DHT22;12384;48.112;18.418;2022-12-07T13:34:31;7.70;87.50
24260;DHT22;12384;48.112;18.418;2022-12-07T13:37:09;7.50;86.20
24260;DHT22;12384;48.112;18.418;2022-12-07T13:39:49;7.30;85.10
24260;DHT22;12384;48.112;18.418;2022-12-07T13:42:40;7.10;84.20
24260;DHT22;12384;48.112;18.418;2022-12-07T13:45:23;7.00;83.70
24260;DHT22;12384;48.112;18.418;2022-12-07T13:48:33;6.80;83.10
24260;DHT22;12384;48.112;18.418;2022-12-07T13:51:14;6.60;83.10
24260;DHT22;12384;48.112;18.418;2022-12-07T13:53:51;6.50;84.30
24260;DHT22;12384;48.112;18.418;2022-12-07T13:56:36;6.40;84.70
24260;DHT22;12384;48.112;18.418;2022-12-07T13:59:12;6.30;84.70
24260;DHT22;12384;48.112;18.418;2022-12-07T14:01:57;6.20;84.80
24260;DHT22;12384;48.112;18.418;2022-12-07T14:04:49;6.10;84.90
24260;DHT22;12384;48.112;18.418;2022-12-07T14:07:25;6.00;85.30
24260;DHT22;12384;48.112;18.418;2022-12-07T14:10:23;5.90;85.60
24260;DHT22;12384;48.112;18.418;2022-12-07T14:12:56;5.80;85.50
24260;DHT22;12384;48.112;18.418;2022-12-07T14:15:30;5.80;84.80
24260;DHT22;12384;48.112;18.418;2022-12-07T14:18:02;5.70;84.20
24260;DHT22;12384;48.112;18.418;2022-12-07T14:20:34;5.60;83.70
24260;DHT22;12384;48.112;18.418;2022-12-07T14:23:22;5.50;83.40
24260;DHT22;12384;48.112;18.418;2022-12-07T14:26:11;5.40;83.20
24260;DHT22;12384;48.112;18.418;2022-12-07T14:28:47;5.30;83.50
24260;DHT22;12384;48.112;18.418;2022-12-07T14:31:24;5.20;84.00
24260;DHT22;12384;48.112;18.418;2022-12-07T14:33:59;5.20;85.00
24260;DHT22;12384;48.112;18.418;2022-12-07T14:36:42;5.10;85.70
24260;DHT22;12384;48.112;18.418;2022-12-07T14:39:16;5.00;86.30
24260;DHT22;12384;48.112;18.418;2022-12-07T14:41:51;5.00;86.70
24260;DHT22;12384;48.112;18.418;2022-12-07T14:44:30;5.00;87.00
24260;DHT22;12384;48.112;18.418;2022-12-07T14:47:18;4.90;87.20
24260;DHT22;12384;48.112;18.418;2022-12-07T14:50:11;4.90;87.60
24260;DHT22;12384;48.112;18.418;2022-12-07T14:52:43;4.80;87.90
24260;DHT22;12384;48.112;18.418;2022-12-07T14:55:38;4.80;88.40
24260;DHT22;12384;48.112;18.418;2022-12-07T14:58:21;4.70;88.90
24260;DHT22;12384;48.112;18.418;2022-12-07T15:01:00;4.70;89.50
24260;DHT22;12384;48.112;18.418;2022-12-07T15:03:30;4.70;90.00
24260;DHT22;12384;48.112;18.418;2022-12-07T15:08:52;4.60;90.50
24260;DHT22;12384;48.112;18.418;2022-12-07T15:11:22;4.60;90.80
24260;DHT22;12384;48.112;18.418;2022-12-07T15:13:54;4.60;91.10
24260;DHT22;12384;48.112;18.418;2022-12-07T15:17:04;4.50;91.70
24260;DHT22;12384;48.112;18.418;2022-12-07T15:20:27;4.50;91.80
24260;DHT22;12384;48.112;18.418;2022-12-07T15:22:58;4.50;92.10
24260;DHT22;12384;48.112;18.418;2022-12-07T15:25:28;4.50;92.30
24260;DHT22;12384;48.112;18.418;2022-12-07T15:27:58;4.50;92.50
24260;DHT22;12384;48.112;18.418;2022-12-07T15:30:28;4.50;92.50
24260;DHT22;12384;48.112;18.418;2022-12-07T15:33:31;4.50;92.50
24260;DHT22;12384;48.112;18.418;2022-12-07T15:36:01;4.40;92.10
24260;DHT22;12384;48.112;18.418;2022-12-07T15:38:56;4.40;91.90
24260;DHT22;12384;48.112;18.418;2022-12-07T15:41:50;4.30;91.70
24260;DHT22;12384;48.112;18.418;2022-12-07T15:44:25;4.30;91.70
24260;DHT22;12384;48.112;18.418;2022-12-07T15:47:12;4.20;91.80
24260;DHT22;12384;48.112;18.418;2022-12-07T15:49:50;4.20;91.90
24260;DHT22;12384;48.112;18.418;2022-12-07T15:52:39;4.20;92.00
24260;DHT22;12384;48.112;18.418;2022-12-07T15:55:09;4.10;91.80
24260;DHT22;12384;48.112;18.418;2022-12-07T15:58:08;4.00;91.70
24260;DHT22;12384;48.112;18.418;2022-12-07T16:00:40;4.00;91.80
24260;DHT22;12384;48.112;18.418;2022-12-07T16:03:13;3.90;91.80
24260;DHT22;12384;48.112;18.418;2022-12-07T16:11:35;3.80;92.10
24260;DHT22;12384;48.112;18.418;2022-12-07T16:14:17;3.80;92.40
24260;DHT22;12384;48.112;18.418;2022-12-07T16:16:50;3.80;92.60
24260;DHT22;12384;48.112;18.418;2022-12-07T16:19:45;3.80;92.80
24260;DHT22;12384;48.112;18.418;2022-12-07T16:22:21;3.80;93.00
24260;DHT22;12384;48.112;18.418;2022-12-07T16:24:52;3.80;93.10
24260;DHT22;12384;48.112;18.418;2022-12-07T16:27:30;3.70;93.00
24260;DHT22;12384;48.112;18.418;2022-12-07T16:30:00;3.70;93.00
24260;DHT22;12384;48.112;18.418;2022-12-07T16:32:30;3.70;92.90
24260;DHT22;12384;48.112;18.418;2022-12-07T16:35:08;3.70;92.90
24260;DHT22;12384;48.112;18.418;2022-12-07T16:37:41;3.70;92.90
24260;DHT22;12384;48.112;18.418;2022-12-07T16:40:41;3.60;92.70
24260;DHT22;12384;48.112;18.418;2022-12-07T16:43:13;3.60;92.50
24260;DHT22;12384;48.112;18.418;2022-12-07T16:46:18;3.50;92.40
24260;DHT22;12384;48.112;18.418;2022-12-07T16:48:55;3.50;92.30
24260;DHT22;12384;48.112;18.418;2022-12-07T16:51:38;3.40;92.30
24260;DHT22;12384;48.112;18.418;2022-12-07T16:54:12;3.40;92.20
24260;DHT22;12384;48.112;18.418;2022-12-07T16:57:24;3.30;92.30